createdAt,value
2022-08-03T00:01:25.454Z,17.98
2022-08-03T00:03:52.017Z,17.96
2022-08-03T00:06:18.684Z,17.97
2022-08-03T00:08:45.244Z,17.81
2022-08-03T00:11:11.919Z,17.84
2022-08-03T00:13:38.449Z,17.82
2022-08-03T00:16:05.316Z,17.78
2022-08-03T00:18:31.862Z,17.72
2022-08-03T00:20:58.335Z,17.62
2022-08-03T00:23:24.904Z,17.71
2022-08-03T00:25:51.683Z,17.78
2022-08-03T00:28:18.212Z,17.71
2022-08-03T00:30:44.973Z,17.67
2022-08-03T00:33:11.609Z,17.65
2022-08-03T00:35:49.217Z,17.61
2022-08-03T00:38:17.043Z,17.60
2022-08-03T00:40:43.561Z,17.62
2022-08-03T00:43:10.810Z,17.60
2022-08-03T00:45:40.439Z,17.55
2022-08-03T00:48:33.316Z,17.51
2022-08-03T00:50:55.749Z,17.43
2022-08-03T00:53:22.310Z,17.46
2022-08-03T00:55:48.941Z,17.26
2022-08-03T00:58:15.369Z,17.29
2022-08-03T01:00:41.947Z,17.29
2022-08-03T01:03:10.424Z,17.31
2022-08-03T01:06:20.323Z,17.33
2022-08-03T01:08:54.659Z,17.26
2022-08-03T01:11:32.633Z,17.18
2022-08-03T01:14:21.157Z,17.18
2022-08-03T01:16:59.522Z,17.12
2022-08-03T01:19:29.153Z,17.17
2022-08-03T01:22:30.379Z,17.11
2022-08-03T01:25:09.161Z,17.08
2022-08-03T01:27:56.891Z,16.96
2022-08-03T01:30:28.158Z,16.88
2022-08-03T01:33:01.857Z,16.88
2022-08-03T01:35:47.115Z,16.93
2022-08-03T01:38:18.344Z,16.96
2022-08-03T01:40:47.076Z,16.83
2022-08-03T01:43:55.199Z,16.80
2022-08-03T01:46:06.705Z,16.79
2022-08-03T01:48:35.030Z,16.72
2022-08-03T01:51:01.985Z,16.72
2022-08-03T01:53:31.343Z,16.69
2022-08-03T01:55:58.895Z,16.68
2022-08-03T01:58:26.979Z,16.66
2022-08-03T02:00:59.361Z,16.53
2022-08-03T02:03:27.856Z,16.57
2022-08-03T02:06:17.853Z,16.59
2022-08-03T02:08:45.343Z,16.61
2022-08-03T02:11:13.025Z,16.58
2022-08-03T02:13:40.555Z,16.63
2022-08-03T02:16:08.320Z,16.51
2022-08-03T02:18:35.506Z,16.47
2022-08-03T02:21:05.496Z,16.44
2022-08-03T02:23:38.890Z,16.45
2022-08-03T02:26:09.288Z,16.40
2022-08-03T02:28:38.459Z,16.36
2022-08-03T02:31:11.685Z,16.42
2022-08-03T02:33:42.873Z,16.36
2022-08-03T02:36:13.231Z,16.31
2022-08-03T02:38:42.868Z,16.29
2022-08-03T02:41:16.555Z,16.25
2022-08-03T02:44:06.201Z,16.24
2022-08-03T02:46:38.469Z,16.15
2022-08-03T02:49:41.111Z,16.11
2022-08-03T02:51:55.218Z,16.12
2022-08-03T02:54:23.847Z,16.13
2022-08-03T02:56:53.775Z,16.19
2022-08-03T02:59:21.362Z,16.05
2022-08-03T03:01:48.920Z,16.08
2022-08-03T03:04:16.484Z,16.05
2022-08-03T03:06:44.202Z,16.02
2022-08-03T03:09:13.769Z,15.96
2022-08-03T03:11:41.353Z,16.00
2022-08-03T03:14:11.359Z,16.03
2022-08-03T03:16:39.383Z,15.98
2022-08-03T03:19:07.706Z,16.00
2022-08-03T03:21:36.575Z,15.90
2022-08-03T03:24:04.922Z,15.89
2022-08-03T03:26:32.145Z,15.78
2022-08-03T03:28:59.396Z,15.81
2022-08-03T03:31:26.077Z,15.89
2022-08-03T03:33:52.780Z,15.75
2022-08-03T03:36:19.562Z,15.78
2022-08-03T03:38:46.179Z,15.63
2022-08-03T03:41:12.714Z,15.70
2022-08-03T03:43:39.741Z,15.62
2022-08-03T03:46:06.551Z,15.61
2022-08-03T03:48:33.578Z,15.59
2022-08-03T03:51:01.193Z,15.62
2022-08-03T03:53:27.911Z,15.56
2022-08-03T03:55:59.237Z,15.66
2022-08-03T03:58:30.221Z,15.64
2022-08-03T04:00:57.032Z,15.63
2022-08-03T04:03:24.616Z,15.63
2022-08-03T04:06:10.140Z,15.54
2022-08-03T04:08:55.434Z,15.74
2022-08-03T04:11:30.376Z,15.77
2022-08-03T04:14:23.147Z,15.78
2022-08-03T04:16:53.680Z,15.94
2022-08-03T04:19:28.396Z,17.32
2022-08-03T04:22:00.435Z,18.84
2022-08-03T04:24:33.525Z,19.49
2022-08-03T04:27:02.853Z,20.40
2022-08-03T04:29:33.445Z,20.69
2022-08-03T04:32:04.518Z,21.15
2022-08-03T04:34:31.842Z,22.17
2022-08-03T04:37:02.590Z,22.87
2022-08-03T04:39:32.480Z,23.32
2022-08-03T04:42:07.805Z,23.27
2022-08-03T04:44:39.194Z,22.77
2022-08-03T04:47:07.930Z,24.24
2022-08-03T04:49:39.990Z,25.20
2022-08-03T04:52:17.867Z,25.68
2022-08-03T04:54:50.245Z,26.05
2022-08-03T04:57:23.231Z,26.23
2022-08-03T04:59:58.189Z,26.14
2022-08-03T05:02:28.565Z,25.73
2022-08-03T05:04:55.042Z,26.85
2022-08-03T05:07:25.107Z,27.40
2022-08-03T05:09:57.618Z,27.24
2022-08-03T05:12:32.826Z,28.23
2022-08-03T05:15:00.295Z,27.83
2022-08-03T05:17:27.320Z,27.38
2022-08-03T05:19:54.388Z,28.50
2022-08-03T05:22:21.558Z,28.12
2022-08-03T05:24:48.315Z,27.91
2022-08-03T05:27:19.266Z,28.19
2022-08-03T05:29:47.168Z,27.75
2022-08-03T05:32:13.691Z,27.58
2022-08-03T05:34:40.443Z,27.23
2022-08-03T05:37:07.444Z,28.54
2022-08-03T05:39:34.769Z,29.47
2022-08-03T05:42:02.211Z,29.67
2022-08-03T05:44:29.119Z,28.39
2022-08-03T05:46:57.679Z,28.09
2022-08-03T05:49:24.307Z,28.50
2022-08-03T05:52:00.439Z,30.39
2022-08-03T05:54:56.938Z,29.48
2022-08-03T05:57:23.197Z,28.40
2022-08-03T05:59:55.702Z,28.99
2022-08-03T06:02:26.407Z,29.14
2022-08-03T06:04:52.937Z,29.83
2022-08-03T06:07:19.570Z,30.70
2022-08-03T06:10:34.196Z,30.63
2022-08-03T06:12:35.999Z,29.63
2022-08-03T06:15:04.484Z,29.11
2022-08-03T06:17:37.601Z,29.57
2022-08-03T06:20:05.862Z,29.47
2022-08-03T06:22:32.415Z,29.56
2022-08-03T06:24:58.967Z,28.72
2022-08-03T06:27:36.291Z,27.64
2022-08-03T06:30:04.779Z,27.88
2022-08-03T06:32:31.327Z,27.36
2022-08-03T06:34:57.877Z,26.90
2022-08-03T06:37:24.569Z,27.34
2022-08-03T06:39:51.148Z,26.69
2022-08-03T06:42:17.931Z,27.16
2022-08-03T06:44:47.164Z,26.92
2022-08-03T06:47:13.713Z,27.36
2022-08-03T06:49:41.444Z,26.65
2022-08-03T06:52:08.054Z,27.61
2022-08-03T06:54:35.677Z,27.20
2022-08-03T06:57:02.672Z,26.46
2022-08-03T07:00:08.447Z,27.28
2022-08-03T07:02:19.396Z,27.26
2022-08-03T07:04:47.873Z,28.22
2022-08-03T07:07:14.458Z,27.33
2022-08-03T07:09:41.792Z,27.93
2022-08-03T07:12:08.698Z,27.05
2022-08-03T07:14:35.311Z,27.82
2022-08-03T07:17:04.591Z,26.68
2022-08-03T07:19:38.295Z,27.02
2022-08-03T07:22:04.892Z,28.20
2022-08-03T07:24:31.403Z,28.59
2022-08-03T07:26:57.945Z,28.00
2022-08-03T07:29:25.035Z,28.60
2022-08-03T07:31:51.679Z,28.53
2022-08-03T07:34:18.312Z,28.44
2022-08-03T07:36:44.852Z,27.67
2022-08-03T07:39:16.008Z,27.62
2022-08-03T07:41:44.716Z,27.82
2022-08-03T07:44:11.265Z,28.46
2022-08-03T07:46:37.808Z,27.91
2022-08-03T07:49:04.392Z,27.30
2022-08-03T07:51:30.996Z,27.27
2022-08-03T07:53:57.764Z,27.98
2022-08-03T07:56:27.245Z,28.53
2022-08-03T07:58:54.404Z,27.43
2022-08-03T08:01:21.392Z,27.85
2022-08-03T08:03:52.652Z,28.00
2022-08-03T08:06:20.913Z,28.10
2022-08-03T08:08:47.804Z,28.74
2022-08-03T08:11:14.833Z,28.64
2022-08-03T08:13:41.341Z,28.42
2022-08-03T08:16:07.935Z,28.28
2022-08-03T08:18:34.529Z,28.70
2022-08-03T08:21:03.225Z,28.54
2022-08-03T08:23:43.423Z,28.76
2022-08-03T08:26:11.998Z,29.12
2022-08-03T08:28:39.081Z,29.05
2022-08-03T08:31:05.601Z,29.02
2022-08-03T08:34:02.189Z,29.70
2022-08-03T08:36:21.457Z,29.50
2022-08-03T08:38:48.000Z,28.96
2022-08-03T08:41:15.583Z,28.80
2022-08-03T08:43:42.794Z,28.92
2022-08-03T08:46:13.023Z,29.41
2022-08-03T08:48:51.715Z,29.96
2022-08-03T08:51:20.893Z,29.32
2022-08-03T08:53:52.971Z,30.30
2022-08-03T08:56:20.446Z,29.75
2022-08-03T08:58:57.975Z,30.16
2022-08-03T09:01:25.182Z,29.55
2022-08-03T09:03:54.045Z,30.45
2022-08-03T09:06:22.446Z,30.32
2022-08-03T09:08:49.072Z,30.12
2022-08-03T09:11:15.729Z,30.10
2022-08-03T09:13:42.808Z,30.54
2022-08-03T09:16:15.225Z,30.76
2022-08-03T09:18:44.198Z,30.58
2022-08-03T09:21:32.024Z,30.81
2022-08-03T09:24:03.848Z,31.20
2022-08-03T09:26:32.603Z,31.39
2022-08-03T09:29:06.804Z,31.08
2022-08-03T09:31:39.958Z,31.78
2022-08-03T09:34:16.387Z,31.56
2022-08-03T09:36:45.875Z,31.45
2022-08-03T09:39:13.695Z,31.11
2022-08-03T09:41:45.807Z,31.46
2022-08-03T09:44:24.288Z,31.75
2022-08-03T09:46:56.530Z,31.34
2022-08-03T09:49:24.373Z,31.26
2022-08-03T09:52:30.130Z,30.45
2022-08-03T09:54:38.798Z,31.60
2022-08-03T09:57:05.488Z,31.37
2022-08-03T09:59:33.475Z,31.57
2022-08-03T10:02:00.886Z,31.96
2022-08-03T10:04:28.017Z,31.74
2022-08-03T10:07:10.773Z,31.51
2022-08-03T10:09:37.932Z,31.89
2022-08-03T10:12:13.062Z,31.32
2022-08-03T10:14:45.722Z,31.83
2022-08-03T10:17:12.456Z,31.84
2022-08-03T10:19:39.401Z,32.30
2022-08-03T10:22:22.766Z,32.47
2022-08-03T10:25:06.940Z,32.26
2022-08-03T10:27:42.285Z,32.57
2022-08-03T10:30:12.853Z,32.69
2022-08-03T10:33:02.695Z,32.45
2022-08-03T10:35:30.085Z,32.27
2022-08-03T10:38:00.490Z,32.27
2022-08-03T10:40:48.085Z,32.57
2022-08-03T10:43:25.971Z,32.14
2022-08-03T10:45:52.529Z,32.22
2022-08-03T10:48:19.870Z,31.93
2022-08-03T10:50:49.010Z,32.08
2022-08-03T10:53:16.637Z,32.17
2022-08-03T10:56:05.551Z,32.60
2022-08-03T10:58:38.204Z,32.78
2022-08-03T11:01:54.213Z,32.88
2022-08-03T11:04:27.215Z,32.40
2022-08-03T11:07:16.223Z,32.75
2022-08-03T11:09:45.045Z,33.04
2022-08-03T11:12:31.431Z,32.60
2022-08-03T11:15:01.406Z,32.42
2022-08-03T11:17:28.018Z,32.34
2022-08-03T11:19:57.432Z,32.65
2022-08-03T11:22:25.112Z,32.82
2022-08-03T11:24:53.982Z,32.81
2022-08-03T11:27:26.021Z,33.41
2022-08-03T11:30:03.214Z,33.26
2022-08-03T11:32:40.023Z,32.91
2022-08-03T11:35:20.293Z,32.44
2022-08-03T11:38:03.362Z,32.88
2022-08-03T11:40:42.795Z,32.83
2022-08-03T11:43:10.853Z,32.88
2022-08-03T11:45:38.075Z,32.94
2022-08-03T11:48:17.616Z,32.68
2022-08-03T11:50:45.431Z,32.64
2022-08-03T11:53:18.174Z,33.28
2022-08-03T11:55:49.480Z,33.57
2022-08-03T11:59:00.775Z,33.35
2022-08-03T12:01:08.661Z,32.62
2022-08-03T12:03:36.289Z,33.06
2022-08-03T12:06:04.387Z,32.73
2022-08-03T12:08:33.759Z,32.46
2022-08-03T12:11:04.449Z,32.67
2022-08-03T12:14:44.816Z,32.97
2022-08-03T12:16:39.981Z,33.27
2022-08-03T12:19:06.939Z,33.06
2022-08-03T12:21:33.713Z,33.20
2022-08-03T12:24:05.862Z,33.04
2022-08-03T12:26:54.525Z,33.51
2022-08-03T12:29:26.364Z,33.53
2022-08-03T12:31:53.001Z,33.57
2022-08-03T12:34:19.688Z,33.82
2022-08-03T12:36:56.769Z,33.84
2022-08-03T12:39:25.477Z,33.50
2022-08-03T12:41:56.782Z,33.39
2022-08-03T12:44:34.632Z,33.54
2022-08-03T12:47:02.759Z,33.71
2022-08-03T12:49:30.459Z,33.42
2022-08-03T12:52:02.823Z,33.92
2022-08-03T12:54:33.893Z,33.36
2022-08-03T12:57:01.551Z,33.69
2022-08-03T12:59:35.351Z,33.61
2022-08-03T13:02:23.707Z,34.17
2022-08-03T13:04:51.542Z,33.35
2022-08-03T13:07:19.511Z,33.86
2022-08-03T13:09:49.566Z,33.41
2022-08-03T13:12:21.333Z,33.69
2022-08-03T13:14:50.714Z,33.33
2022-08-03T13:17:18.377Z,34.08
2022-08-03T13:19:46.472Z,33.79
2022-08-03T13:22:17.247Z,33.75
2022-08-03T13:24:45.801Z,34.17
2022-08-03T13:27:22.087Z,34.33
2022-08-03T13:30:00.092Z,33.87
2022-08-03T13:32:26.649Z,33.29
2022-08-03T13:34:53.225Z,33.19
2022-08-03T13:37:19.993Z,33.27
2022-08-03T13:40:00.268Z,32.97
2022-08-03T13:42:31.024Z,33.38
2022-08-03T13:44:57.853Z,33.72
2022-08-03T13:47:24.710Z,33.86
2022-08-03T13:49:59.728Z,33.64
2022-08-03T13:52:33.675Z,33.97
2022-08-03T13:55:01.138Z,33.73
2022-08-03T13:58:04.545Z,33.76
2022-08-03T14:00:28.212Z,33.98
2022-08-03T14:03:12.807Z,33.96
2022-08-03T14:05:41.073Z,33.98
2022-08-03T14:08:07.860Z,33.94
2022-08-03T14:10:39.120Z,33.34
2022-08-03T14:13:06.184Z,33.93
2022-08-03T14:15:37.867Z,34.16
2022-08-03T14:18:04.818Z,34.20
2022-08-03T14:20:37.892Z,34.12
2022-08-03T14:23:07.161Z,34.13
2022-08-03T14:25:49.865Z,34.07
2022-08-03T14:28:23.060Z,34.07
2022-08-03T14:30:54.186Z,33.76
2022-08-03T14:33:20.741Z,34.18
2022-08-03T14:35:48.200Z,34.09
2022-08-03T14:38:15.230Z,33.72
2022-08-03T14:40:42.152Z,34.31
2022-08-03T14:43:08.762Z,34.19
2022-08-03T14:45:35.351Z,33.66
2022-08-03T14:50:24.979Z,33.85
2022-08-03T14:50:52.856Z,33.42
2022-08-03T14:53:20.048Z,33.53
2022-08-03T14:55:49.621Z,33.54
2022-08-03T14:58:20.636Z,33.82
2022-08-03T15:00:47.975Z,33.85
2022-08-03T15:03:16.786Z,33.48
2022-08-03T15:05:43.805Z,33.55
2022-08-03T15:08:10.325Z,33.86
2022-08-03T15:10:44.605Z,33.49
2022-08-03T15:13:15.316Z,33.55
2022-08-03T15:15:42.231Z,33.72
2022-08-03T15:18:08.964Z,33.35
2022-08-03T15:20:51.051Z,33.75
2022-08-03T15:23:18.454Z,33.79
2022-08-03T15:26:03.814Z,33.68
2022-08-03T15:28:33.087Z,33.77
2022-08-03T15:31:00.306Z,33.65
2022-08-03T15:33:26.930Z,33.63
2022-08-03T15:35:53.937Z,33.51
2022-08-03T15:38:26.217Z,33.39
2022-08-03T15:40:54.558Z,33.64
2022-08-03T15:43:22.171Z,33.19
2022-08-03T15:45:54.659Z,32.75
2022-08-03T15:48:35.256Z,33.22
2022-08-03T15:51:01.942Z,33.15
2022-08-03T15:53:28.466Z,33.03
2022-08-03T15:55:55.017Z,32.98
2022-08-03T15:59:04.449Z,33.00
2022-08-03T16:01:08.350Z,32.65
2022-08-03T16:03:35.482Z,32.53
2022-08-03T16:06:06.750Z,32.58
2022-08-03T16:08:33.655Z,32.88
2022-08-03T16:11:00.931Z,32.56
2022-08-03T16:14:12.871Z,32.28
2022-08-03T16:16:14.377Z,32.30
2022-08-03T16:18:41.929Z,32.18
2022-08-03T16:21:08.461Z,32.26
2022-08-03T16:23:40.345Z,32.11
2022-08-03T16:26:10.076Z,32.05
2022-08-03T16:28:38.703Z,32.16
2022-08-03T16:31:06.196Z,31.98
2022-08-03T16:33:33.422Z,31.79
2022-08-03T16:35:59.998Z,31.53
2022-08-03T16:38:26.915Z,31.53
2022-08-03T16:40:53.490Z,31.94
2022-08-03T16:43:22.457Z,31.63
2022-08-03T16:45:49.617Z,31.23
2022-08-03T16:48:17.187Z,31.18
2022-08-03T16:50:44.680Z,31.04
2022-08-03T16:53:16.676Z,30.86
2022-08-03T16:55:53.079Z,30.70
2022-08-03T16:58:34.858Z,30.40
2022-08-03T17:01:22.507Z,30.35
2022-08-03T17:04:04.894Z,30.00
2022-08-03T17:06:35.535Z,30.01
2022-08-03T17:09:08.415Z,29.87
2022-08-03T17:11:37.797Z,29.68
2022-08-03T17:14:09.206Z,29.73
2022-08-03T17:16:38.489Z,29.86
2022-08-03T17:19:06.907Z,29.62
2022-08-03T17:21:37.626Z,29.63
2022-08-03T17:24:27.254Z,29.43
2022-08-03T17:26:55.019Z,29.25
2022-08-03T17:29:30.039Z,29.23
2022-08-03T17:31:57.002Z,29.07
2022-08-03T17:34:26.570Z,29.02
2022-08-03T17:37:27.264Z,28.89
2022-08-03T17:39:58.089Z,28.86
2022-08-03T17:42:31.320Z,28.70
2022-08-03T17:45:02.447Z,28.85
2022-08-03T17:47:42.949Z,28.86
2022-08-03T17:50:24.390Z,28.64
2022-08-03T17:53:07.606Z,28.41
2022-08-03T17:55:57.370Z,28.43
2022-08-03T17:59:50.891Z,28.28
2022-08-03T18:02:54.509Z,28.31
2022-08-03T18:06:11.370Z,28.18
2022-08-03T18:08:28.204Z,28.09
2022-08-03T18:11:35.884Z,28.06
2022-08-03T18:14:42.787Z,27.89
2022-08-03T18:17:58.145Z,27.74
2022-08-03T18:20:32.842Z,27.64
2022-08-03T18:23:04.652Z,27.51
2022-08-03T18:25:44.409Z,27.43
2022-08-03T18:28:18.891Z,27.32
2022-08-03T18:30:54.776Z,27.23
2022-08-03T18:34:19.727Z,27.16
2022-08-03T18:36:17.379Z,27.11
2022-08-03T18:38:48.018Z,26.96
2022-08-03T18:41:22.064Z,26.83
2022-08-03T18:44:08.661Z,26.71
2022-08-03T18:47:02.956Z,26.56
2022-08-03T18:49:53.205Z,26.34
2022-08-03T18:52:31.001Z,26.25
2022-08-03T18:55:21.538Z,26.16
2022-08-03T18:58:00.842Z,26.04
2022-08-03T19:00:42.470Z,25.90
2022-08-03T19:03:24.034Z,25.73
2022-08-03T19:06:09.477Z,25.62
2022-08-03T19:08:49.634Z,25.59
2022-08-03T19:12:12.795Z,25.56
2022-08-03T19:14:28.591Z,25.35
2022-08-03T19:17:09.879Z,25.27
2022-08-03T19:19:43.622Z,25.26
2022-08-03T19:22:19.648Z,25.08
2022-08-03T19:24:47.754Z,24.96
2022-08-03T19:27:15.938Z,24.84
2022-08-03T19:29:59.123Z,24.75
2022-08-03T19:32:29.450Z,24.62
2022-08-03T19:34:57.116Z,24.65
2022-08-03T19:37:27.505Z,24.42
2022-08-03T19:40:05.226Z,24.43
2022-08-03T19:42:44.403Z,24.21
2022-08-03T19:45:15.518Z,24.14
2022-08-03T19:47:52.506Z,24.16
2022-08-03T19:50:20.327Z,24.12
2022-08-03T19:52:49.708Z,23.99
2022-08-03T19:55:17.542Z,23.95
2022-08-03T19:57:49.270Z,23.89
2022-08-03T20:00:19.864Z,23.74
2022-08-03T20:02:47.270Z,23.71
2022-08-03T20:05:18.377Z,23.66
2022-08-03T20:07:47.885Z,23.62
2022-08-03T20:10:16.654Z,23.53
2022-08-03T20:12:46.969Z,23.43
2022-08-03T20:15:18.391Z,23.37
2022-08-03T20:17:54.348Z,23.31
2022-08-03T20:20:26.131Z,23.25
2022-08-03T20:22:57.646Z,23.17
2022-08-03T20:25:37.886Z,23.15
2022-08-03T20:28:14.154Z,23.03
2022-08-03T20:30:46.342Z,23.01
2022-08-03T20:33:18.748Z,22.92
2022-08-03T20:35:48.874Z,22.93
2022-08-03T20:38:18.565Z,22.77
2022-08-03T20:40:46.324Z,22.64
2022-08-03T20:43:12.896Z,22.54
2022-08-03T20:46:00.205Z,22.48
2022-08-03T20:48:28.113Z,22.42
2022-08-03T20:50:56.423Z,22.46
2022-08-03T20:53:57.012Z,22.39
2022-08-03T20:56:10.079Z,22.22
2022-08-03T20:58:36.982Z,22.15
2022-08-03T21:01:08.392Z,22.21
2022-08-03T21:03:41.123Z,22.07
2022-08-03T21:06:27.511Z,22.08
2022-08-03T21:09:05.169Z,21.97
2022-08-03T21:11:41.833Z,22.00
2022-08-03T21:14:42.300Z,21.87
2022-08-03T21:17:19.437Z,21.88
2022-08-03T21:19:57.254Z,21.81
2022-08-03T21:22:25.864Z,21.82
2022-08-03T21:24:55.986Z,21.72
2022-08-03T21:27:24.662Z,21.74
2022-08-03T21:29:53.098Z,21.75
2022-08-03T21:32:32.554Z,21.63
2022-08-03T21:34:59.735Z,21.59
2022-08-03T21:37:27.561Z,21.46
2022-08-03T21:39:55.264Z,21.40
2022-08-03T21:42:25.776Z,21.37
2022-08-03T21:44:53.001Z,21.32
2022-08-03T21:47:22.851Z,21.32
2022-08-03T21:50:06.265Z,21.18
2022-08-03T21:52:40.376Z,21.12
2022-08-03T21:55:08.028Z,21.07
2022-08-03T21:57:37.718Z,21.05
2022-08-03T22:02:30.103Z,20.96
2022-08-03T22:04:58.705Z,20.85
2022-08-03T22:07:28.266Z,20.75
2022-08-03T22:10:01.075Z,20.78
2022-08-03T22:12:30.651Z,20.72
2022-08-03T22:15:01.366Z,20.64
2022-08-03T22:17:55.240Z,20.60
2022-08-03T22:20:19.920Z,20.57
2022-08-03T22:22:52.168Z,20.54
2022-08-03T22:25:27.363Z,20.55
2022-08-03T22:27:54.844Z,20.43
2022-08-03T22:30:21.703Z,20.37
2022-08-03T22:32:51.852Z,20.35
2022-08-03T22:35:20.711Z,20.29
2022-08-03T22:37:49.520Z,20.27
2022-08-03T22:40:16.811Z,20.32
2022-08-03T22:42:49.322Z,20.29
2022-08-03T22:46:06.845Z,20.20
2022-08-03T22:48:08.256Z,20.17
2022-08-03T22:50:34.917Z,20.08
2022-08-03T22:53:01.495Z,20.06
2022-08-03T22:55:28.573Z,19.96
2022-08-03T22:57:56.208Z,19.93
2022-08-03T23:00:24.243Z,19.84
2022-08-03T23:02:53.732Z,19.92
2022-08-03T23:06:00.611Z,19.89
2022-08-03T23:08:12.366Z,19.76
2022-08-03T23:10:46.156Z,19.56
2022-08-03T23:13:16.450Z,19.60
2022-08-03T23:15:50.747Z,19.62
2022-08-03T23:18:20.812Z,19.51
2022-08-03T23:20:51.438Z,19.48
2022-08-03T23:23:19.859Z,19.46
2022-08-03T23:25:49.483Z,19.45
2022-08-03T23:28:16.857Z,19.42
2022-08-03T23:30:44.932Z,19.39
2022-08-03T23:33:13.731Z,19.31
2022-08-03T23:36:22.618Z,19.35
2022-08-03T23:38:48.489Z,19.31
2022-08-03T23:41:18.563Z,19.27
2022-08-03T23:43:52.098Z,19.23
2022-08-03T23:46:25.826Z,19.27
2022-08-03T23:48:53.835Z,19.21
2022-08-03T23:52:00.281Z,19.11
2022-08-03T23:54:45.062Z,19.07
2022-08-03T23:57:11.494Z,19.09
2022-08-03T23:59:55.699Z,19.04
